Terminal Aerodrome Forecast
Issued by NWS

Home | Current Version | Previous Version | Text Only | Print | Product List | Glossary On
Versions: 1 2 3 4 5 6 7 8 9 10 11 12 13 14 15 16 17 18 19 20 21 22 23 24 25 26 27 28 29 30 31 32 33 34 35 36
885
FTUS43 KDDC 210520
TAFGCK
TAF
KGCK 210520Z 2106/2206 06007KT P6SM SKC
     FM211500 23006KT P6SM SCT140
     FM212200 17008KT P6SM VCTS SCT080CB
     FM220000 11007KT P6SM BKN090=

USA.gov is the U.S. government's official web portal to all federal, state and local government web resources and services.